TAF Text Data
IDs:
Format:
Raw Decoded Include METAR

Data at: 1357 UTC 21 Apr 2021

KMKT 211126Z 2112/2212 32010KT P6SM FEW060
  FM211600 31012G20KT P6SM BKN050
  FM220100 31007KT P6SM BKN080
  FM220900 23005KT P6SM SCT080